Time;durP1;ratioP1;P1;durP2;ratioP2;P2;SDS_P1;SDS_P2;PMS_P1;PMS_P2;Temp;Humidity;BMP_temperature;BMP_pressure;BME280_temperature;BME280_humidity;BME280_pressure;Samples;Min_cycle;Max_cycle;Signal;HPM_P1;HPM_P2
2021/06/08 00:00:23;;;;;;;;;6.00;6.00;;;;;;;;3724404;37;19886;-64
2021/06/08 00:02:49;;;;;;;;;7.50;7.50;;;;;;;;3724267;38;19884;-65
2021/06/08 00:05:16;;;;;;;;;6.25;5.50;;;;;;;;3724719;37;19890;-66
2021/06/08 00:07:43;;;;;;;;;5.25;5.25;;;;;;;;3724489;37;19870;-65
2021/06/08 00:10:10;;;;;;;;;5.00;5.00;;;;;;;;3724464;37;19928;-66
2021/06/08 00:12:36;;;;;;;;;6.00;6.00;;;;;;;;3724852;37;19868;-65
2021/06/08 00:15:03;;;;;;;;;7.50;6.50;;;;;;;;3725027;37;19866;-66
2021/06/08 00:17:30;;;;;;;;;7.50;6.50;;;;;;;;3725064;38;17729;-65
2021/06/08 00:19:57;;;;;;;;;7.50;7.50;;;;;;;;3724841;37;19865;-66
2021/06/08 00:22:24;;;;;;;;;5.50;5.50;;;;;;;;3724684;37;19837;-65
2021/06/08 00:24:50;;;;;;;;;6.25;6.25;;;;;;;;3724629;38;20193;-65
2021/06/08 00:27:17;;;;;;;;;5.50;5.00;;;;;;;;3725044;38;19925;-65
2021/06/08 00:29:47;;;;;;;;;7.50;7.00;;;;;;;;3725070;38;19921;-66
2021/06/08 00:32:13;;;;;;;;;6.50;6.50;;;;;;;;3724828;37;19923;-65
2021/06/08 00:34:39;;;;;;;;;4.25;4.25;;;;;;;;3724789;38;19896;-66
2021/06/08 00:37:06;;;;;;;;;6.75;6.00;;;;;;;;3724662;37;19894;-65
2021/06/08 00:39:33;;;;;;;;;7.00;7.00;;;;;;;;3725138;37;17682;-65
2021/06/08 00:42:00;;;;;;;;;7.00;7.00;;;;;;;;3724950;37;19964;-66
2021/06/08 00:44:28;;;;;;;;;5.50;5.50;;;;;;;;3724723;37;19845;-66
2021/06/08 00:46:56;;;;;;;;;10.00;10.00;;;;;;;;3725127;38;19921;-65
2021/06/08 00:49:22;;;;;;;;;8.25;7.75;;;;;;;;3725298;37;19866;-65
2021/06/08 00:51:48;;;;;;;;;8.75;8.75;;;;;;;;3725283;38;19836;-66
2021/06/08 00:54:14;;;;;;;;;8.75;8.75;;;;;;;;3730631;37;17675;-66
2021/06/08 00:56:42;;;;;;;;;7.00;7.00;;;;;;;;3725510;38;17650;-65
2021/06/08 00:59:08;;;;;;;;;9.25;9.25;;;;;;;;3725322;38;17664;-65
2021/06/08 01:01:34;;;;;;;;;5.00;4.00;;;;;;;;3725201;37;19863;-65
2021/06/08 01:04:07;;;;;;;;;10.00;10.00;;;;;;;;3725332;38;19780;-64
2021/06/08 01:06:33;;;;;;;;;7.75;7.75;;;;;;;;3724800;37;19870;-64
2021/06/08 01:09:00;;;;;;;;;7.75;7.50;;;;;;;;3724775;37;19794;-64
2021/06/08 01:11:28;;;;;;;;;6.00;6.00;;;;;;;;3724912;38;19864;-65
2021/06/08 01:13:54;;;;;;;;;6.00;6.00;;;;;;;;3724750;37;19882;-65
2021/06/08 01:16:20;;;;;;;;;7.75;7.75;;;;;;;;3726235;38;19863;-65
2021/06/08 01:18:46;;;;;;;;;7.25;6.00;;;;;;;;3725757;37;17645;-64
2021/06/08 01:21:12;;;;;;;;;7.00;7.00;;;;;;;;3725361;37;17639;-66
2021/06/08 01:23:39;;;;;;;;;10.00;9.25;;;;;;;;3725547;38;19844;-66
2021/06/08 01:26:05;;;;;;;;;8.00;7.00;;;;;;;;3725166;38;19813;-64
2021/06/08 01:28:32;;;;;;;;;7.25;7.25;;;;;;;;3725512;38;19788;-64
2021/06/08 01:31:02;;;;;;;;;8.00;7.50;;;;;;;;3725551;37;19820;-64
2021/06/08 01:33:28;;;;;;;;;8.00;8.00;;;;;;;;3725497;37;19780;-64
2021/06/08 01:35:54;;;;;;;;;5.75;5.75;;;;;;;;3725693;37;19734;-65
2021/06/08 01:38:21;;;;;;;;;9.25;8.00;;;;;;;;3725546;37;19768;-65
2021/06/08 01:40:48;;;;;;;;;8.50;8.50;;;;;;;;3725583;37;19735;-64
2021/06/08 01:43:19;;;;;;;;;8.00;6.75;;;;;;;;3725469;38;19893;-66
2021/06/08 01:45:49;;;;;;;;;7.00;7.00;;;;;;;;3725126;37;19743;-65
2021/06/08 01:48:17;;;;;;;;;5.75;5.75;;;;;;;;3725162;37;19778;-66
2021/06/08 01:50:48;;;;;;;;;8.00;8.00;;;;;;;;3724753;37;19815;-66
2021/06/08 01:53:24;;;;;;;;;7.25;7.25;;;;;;;;3725078;37;19744;-65
2021/06/08 01:55:53;;;;;;;;;7.50;7.50;;;;;;;;3724858;37;19746;-66
2021/06/08 01:58:39;;;;;;;;;7.75;7.75;;;;;;;;3724745;38;19746;-66
2021/06/08 02:01:10;;;;;;;;;7.75;6.25;;;;;;;;3725222;38;19752;-67
2021/06/08 02:03:43;;;;;;;;;6.00;6.00;;;;;;;;3725319;38;19715;-66
2021/06/08 02:06:34;;;;;;;;;7.25;6.50;;;;;;;;3725255;38;19735;-66
2021/06/08 02:09:04;;;;;;;;;9.00;8.25;;;;;;;;3725188;37;19750;-66
2021/06/08 02:11:56;;;;;;;;;7.50;7.00;;;;;;;;3725210;38;19744;-64
2021/06/08 02:14:34;;;;;;;;;7.50;7.50;;;;;;;;3725069;38;19736;-66
2021/06/08 02:17:21;;;;;;;;;6.75;6.75;;;;;;;;3725029;37;19716;-66
2021/06/08 02:19:48;;;;;;;;;7.00;7.00;;;;;;;;3725113;38;19700;-65
2021/06/08 02:22:15;;;;;;;;;7.25;7.25;;;;;;;;3727041;38;19687;-66
2021/06/08 02:24:44;;;;;;;;;8.75;8.75;;;;;;;;3729177;37;19707;-66
2021/06/08 02:27:10;;;;;;;;;9.25;9.25;;;;;;;;3728750;38;19712;-64
2021/06/08 02:29:37;;;;;;;;;8.25;7.50;;;;;;;;3725037;37;19749;-64
2021/06/08 02:32:04;;;;;;;;;8.75;8.75;;;;;;;;3724910;37;19675;-65
2021/06/08 02:34:31;;;;;;;;;7.75;7.00;;;;;;;;3724634;37;19729;-65
2021/06/08 02:36:59;;;;;;;;;8.00;8.00;;;;;;;;3724957;37;19686;-64
2021/06/08 02:39:32;;;;;;;;;8.25;8.25;;;;;;;;3724635;38;19682;-63
2021/06/08 02:42:00;;;;;;;;;11.75;11.00;;;;;;;;3724846;38;19715;-64
2021/06/08 02:44:27;;;;;;;;;11.00;9.25;;;;;;;;3724965;38;19706;-65
2021/06/08 02:46:54;;;;;;;;;10.50;10.50;;;;;;;;3724914;37;19693;-65
2021/06/08 02:49:21;;;;;;;;;10.25;10.00;;;;;;;;3725050;38;19845;-66
2021/06/08 02:51:50;;;;;;;;;10.25;9.50;;;;;;;;3724796;37;19699;-64
2021/06/08 02:54:19;;;;;;;;;7.25;7.25;;;;;;;;3724824;37;19688;-64
2021/06/08 02:56:45;;;;;;;;;10.00;10.00;;;;;;;;3725071;37;19655;-64
2021/06/08 02:59:12;;;;;;;;;12.00;12.00;;;;;;;;3724725;38;19736;-66
2021/06/08 03:01:43;;;;;;;;;14.00;14.00;;;;;;;;3725119;38;19766;-64
2021/06/08 03:04:10;;;;;;;;;11.50;11.25;;;;;;;;3725192;37;19722;-65
2021/06/08 03:06:40;;;;;;;;;19.25;18.75;;;;;;;;3725143;38;19981;-65
2021/06/08 03:09:07;;;;;;;;;9.00;9.00;;;;;;;;3725020;38;20691;-66
2021/06/08 03:11:38;;;;;;;;;9.50;9.50;;;;;;;;3724820;38;19644;-65
2021/06/08 03:14:09;;;;;;;;;12.50;12.50;;;;;;;;3724909;37;20642;-65
2021/06/08 03:16:37;;;;;;;;;14.00;12.75;;;;;;;;3725022;37;20668;-66
2021/06/08 03:19:05;;;;;;;;;12.00;12.00;;;;;;;;3725153;38;20696;-67
2021/06/08 03:21:36;;;;;;;;;12.75;12.00;;;;;;;;3725190;37;20687;-65
2021/06/08 03:24:04;;;;;;;;;13.50;13.50;;;;;;;;3724749;37;20674;-66
2021/06/08 03:26:36;;;;;;;;;41.00;35.00;;;;;;;;3725360;37;20688;-66
2021/06/08 03:29:10;;;;;;;;;14.50;14.50;;;;;;;;3724862;38;20672;-64
2021/06/08 03:31:37;;;;;;;;;12.25;12.00;;;;;;;;3725078;38;20655;-65
2021/06/08 03:34:04;;;;;;;;;13.00;13.00;;;;;;;;3726614;37;20641;-66
2021/06/08 03:36:30;;;;;;;;;15.00;15.00;;;;;;;;3726636;37;20643;-64
2021/06/08 03:38:59;;;;;;;;;16.75;16.75;;;;;;;;3725423;38;20665;-65
2021/06/08 03:41:25;;;;;;;;;15.50;14.75;;;;;;;;3724705;37;20663;-65
2021/06/08 03:43:53;;;;;;;;;15.50;15.25;;;;;;;;3725255;37;20653;-64
2021/06/08 03:46:19;;;;;;;;;33.00;31.50;;;;;;;;3725107;38;20641;-65
2021/06/08 03:48:46;;;;;;;;;17.00;17.00;;;;;;;;3725198;38;20654;-65
2021/06/08 03:51:16;;;;;;;;;19.00;18.25;;;;;;;;3724757;38;20657;-66
2021/06/08 03:53:42;;;;;;;;;20.75;20.50;;;;;;;;3725061;38;20648;-64
2021/06/08 03:56:10;;;;;;;;;19.50;19.50;;;;;;;;3725076;37;20626;-64
2021/06/08 03:58:38;;;;;;;;;19.00;17.50;;;;;;;;3724776;38;18427;-63
2021/06/08 04:01:04;;;;;;;;;21.00;20.25;;;;;;;;3724911;38;20639;-64
2021/06/08 04:03:30;;;;;;;;;21.50;20.75;;;;;;;;3724955;37;20644;-64
2021/06/08 04:05:56;;;;;;;;;17.00;17.00;;;;;;;;3725078;37;20602;-63
2021/06/08 04:08:25;;;;;;;;;20.50;19.50;;;;;;;;3724946;37;20639;-63
2021/06/08 04:10:52;;;;;;;;;18.25;18.25;;;;;;;;3725096;37;20594;-62
2021/06/08 04:13:20;;;;;;;;;20.50;19.00;;;;;;;;3725115;37;20631;-64
2021/06/08 04:15:49;;;;;;;;;20.50;19.50;;;;;;;;3724632;37;20600;-65
2021/06/08 04:18:16;;;;;;;;;18.50;18.50;;;;;;;;3724839;37;20617;-64
2021/06/08 04:20:46;;;;;;;;;20.25;19.50;;;;;;;;3724966;37;20583;-66
2021/06/08 04:23:12;;;;;;;;;20.25;19.25;;;;;;;;3724658;37;20606;-64
2021/06/08 04:25:39;;;;;;;;;15.50;15.50;;;;;;;;3725352;38;20602;-64
2021/06/08 04:28:05;;;;;;;;;17.50;16.75;;;;;;;;3725187;38;20610;-66
2021/06/08 04:30:31;;;;;;;;;16.25;16.25;;;;;;;;3725083;37;20573;-64
2021/06/08 04:32:57;;;;;;;;;18.25;17.25;;;;;;;;3725398;37;20584;-64
2021/06/08 04:35:23;;;;;;;;;15.00;15.00;;;;;;;;3725307;38;18381;-63
2021/06/08 04:37:50;;;;;;;;;18.25;18.00;;;;;;;;3725039;37;18363;-65
2021/06/08 04:40:16;;;;;;;;;16.75;16.00;;;;;;;;3724746;37;18385;-64
2021/06/08 04:42:44;;;;;;;;;18.75;17.25;;;;;;;;3725018;38;20586;-65
2021/06/08 04:45:16;;;;;;;;;15.75;15.75;;;;;;;;3725014;37;20558;-65
2021/06/08 04:47:42;;;;;;;;;18.50;18.50;;;;;;;;3725207;37;20553;-67
2021/06/08 04:50:10;;;;;;;;;19.50;19.50;;;;;;;;3725251;37;20548;-65
2021/06/08 04:52:38;;;;;;;;;19.25;19.25;;;;;;;;3724848;37;18374;-65
2021/06/08 04:55:05;;;;;;;;;20.00;20.00;;;;;;;;3724966;38;20564;-64
2021/06/08 04:57:32;;;;;;;;;19.25;18.50;;;;;;;;3724909;37;20574;-64
2021/06/08 05:00:01;;;;;;;;;16.25;16.25;;;;;;;;3725033;38;20559;-66
2021/06/08 05:02:42;;;;;;;;;15.50;15.00;;;;;;;;3725105;38;20547;-65
2021/06/08 05:05:10;;;;;;;;;15.50;15.50;;;;;;;;3725029;37;20538;-67
2021/06/08 05:07:38;;;;;;;;;14.00;14.00;;;;;;;;3725156;38;20559;-64
2021/06/08 05:10:07;;;;;;;;;14.25;14.00;;;;;;;;3725205;38;20545;-66
2021/06/08 05:12:34;;;;;;;;;17.00;16.50;;;;;;;;3724862;37;20515;-65
2021/06/08 05:15:01;;;;;;;;;13.25;13.25;;;;;;;;3725264;37;20514;-66
2021/06/08 05:17:27;;;;;;;;;15.00;15.00;;;;;;;;3725198;38;20519;-67
2021/06/08 05:19:53;;;;;;;;;17.75;16.75;;;;;;;;3725277;38;20525;-66
2021/06/08 05:22:21;;;;;;;;;13.75;13.25;;;;;;;;3725090;37;20534;-65
2021/06/08 05:24:54;;;;;;;;;12.00;12.00;;;;;;;;3725396;37;20511;-73
2021/06/08 05:27:21;;;;;;;;;11.75;10.75;;;;;;;;3725517;37;20513;-66
2021/06/08 05:29:54;;;;;;;;;10.25;10.25;;;;;;;;3725080;37;20475;-65
2021/06/08 05:32:20;;;;;;;;;12.50;12.25;;;;;;;;3725214;38;20494;-65
2021/06/08 05:34:46;;;;;;;;;13.50;13.50;;;;;;;;3725338;37;20499;-65
2021/06/08 05:37:14;;;;;;;;;13.50;12.50;;;;;;;;3725430;37;18297;-64
2021/06/08 05:39:46;;;;;;;;;16.00;16.00;;;;;;;;3724872;38;20587;-64
2021/06/08 05:42:20;;;;;;;;;14.25;14.25;;;;;;;;3725296;37;20494;-65
2021/06/08 05:44:46;;;;;;;;;12.25;12.00;;;;;;;;3724986;38;20536;-65
2021/06/08 05:47:13;;;;;;;;;10.75;10.75;;;;;;;;3725126;37;20529;-62
2021/06/08 05:49:39;;;;;;;;;13.00;13.00;;;;;;;;3725238;37;20478;-67
2021/06/08 05:52:06;;;;;;;;;16.00;16.00;;;;;;;;3725199;38;20515;-65
2021/06/08 05:54:33;;;;;;;;;13.00;13.00;;;;;;;;3725322;37;20452;-66
2021/06/08 05:57:00;;;;;;;;;13.00;12.50;;;;;;;;3725267;37;20533;-66
2021/06/08 05:59:26;;;;;;;;;15.00;15.00;;;;;;;;3724956;38;20516;-66
2021/06/08 06:01:53;;;;;;;;;14.75;13.00;;;;;;;;3725874;38;20511;-67
2021/06/08 06:04:24;;;;;;;;;13.00;13.00;;;;;;;;3731160;38;20464;-65
2021/06/08 06:06:57;;;;;;;;;15.00;14.00;;;;;;;;3740955;38;20435;-64
2021/06/08 06:09:31;;;;;;;;;15.25;13.50;;;;;;;;3740005;38;20444;-67
2021/06/08 06:12:02;;;;;;;;;14.25;14.00;;;;;;;;3740830;38;20442;-64
2021/06/08 06:14:30;;;;;;;;;13.00;12.75;;;;;;;;3729217;37;20497;-66
2021/06/08 06:16:59;;;;;;;;;8.75;8.00;;;;;;;;3739555;38;20452;-65
2021/06/08 06:19:35;;;;;;;;;10.25;10.25;;;;;;;;3740075;37;20379;-67
2021/06/08 06:22:02;;;;;;;;;13.25;13.25;;;;;;;;3730972;37;20556;-65
2021/06/08 06:24:31;;;;;;;;;14.00;13.25;;;;;;;;3726379;37;20486;-64
2021/06/08 06:26:58;;;;;;;;;13.00;13.00;;;;;;;;3726321;38;20485;-64
2021/06/08 06:29:25;;;;;;;;;11.00;11.00;;;;;;;;3725019;38;20500;-63
2021/06/08 06:31:56;;;;;;;;;13.00;13.00;;;;;;;;3726201;37;20479;-64
2021/06/08 06:34:26;;;;;;;;;14.00;14.00;;;;;;;;3725101;38;20466;-65
2021/06/08 06:37:06;;;;;;;;;13.00;13.00;;;;;;;;3725234;38;20421;-63
2021/06/08 06:39:35;;;;;;;;;15.50;14.75;;;;;;;;3725226;37;20479;-63
2021/06/08 06:42:02;;;;;;;;;12.00;12.00;;;;;;;;3724829;37;20415;-65
2021/06/08 06:44:30;;;;;;;;;13.00;12.25;;;;;;;;3725149;38;20460;-64
2021/06/08 06:46:56;;;;;;;;;13.00;13.00;;;;;;;;3724786;38;20473;-66
2021/06/08 06:49:24;;;;;;;;;12.75;12.25;;;;;;;;3724806;38;20598;-65
2021/06/08 06:51:53;;;;;;;;;13.00;12.00;;;;;;;;3725111;37;20468;-65
2021/06/08 06:54:19;;;;;;;;;14.25;13.25;;;;;;;;3724799;38;20451;-64
2021/06/08 06:56:45;;;;;;;;;14.00;14.00;;;;;;;;3725060;38;20437;-64
2021/06/08 06:59:15;;;;;;;;;18.25;18.25;;;;;;;;3725127;38;20450;-64
2021/06/08 07:01:41;;;;;;;;;12.75;12.50;;;;;;;;3725175;38;20369;-65
2021/06/08 07:04:08;;;;;;;;;13.25;13.00;;;;;;;;3725313;38;18170;-65
2021/06/08 07:06:34;;;;;;;;;11.00;10.75;;;;;;;;3725071;37;20448;-64
2021/06/08 07:09:00;;;;;;;;;13.75;12.00;;;;;;;;3725132;38;20428;-64
2021/06/08 07:11:27;;;;;;;;;10.00;9.00;;;;;;;;3725067;38;20349;-64
2021/06/08 07:13:54;;;;;;;;;12.50;12.50;;;;;;;;3724978;38;20297;-64
2021/06/08 07:16:23;;;;;;;;;15.00;14.00;;;;;;;;3724853;37;20460;-65
2021/06/08 07:18:50;;;;;;;;;13.00;13.00;;;;;;;;3725163;37;20337;-65
2021/06/08 07:21:17;;;;;;;;;12.25;12.25;;;;;;;;3725070;37;20405;-65
2021/06/08 07:23:47;;;;;;;;;14.75;14.75;;;;;;;;3725299;37;20406;-64
2021/06/08 07:26:14;;;;;;;;;11.50;11.50;;;;;;;;3725392;38;20345;-64
2021/06/08 07:28:41;;;;;;;;;11.50;11.25;;;;;;;;3724978;38;20419;-63
2021/06/08 07:31:07;;;;;;;;;13.50;13.00;;;;;;;;3725179;37;20404;-64
2021/06/08 07:33:52;;;;;;;;;11.25;11.25;;;;;;;;3725116;37;20409;-65
2021/06/08 07:36:34;;;;;;;;;11.00;11.00;;;;;;;;3725293;37;20385;-64
2021/06/08 07:39:02;;;;;;;;;11.00;11.00;;;;;;;;3725691;38;20402;-64
2021/06/08 07:41:44;;;;;;;;;12.75;12.75;;;;;;;;3725339;37;20416;-64
2021/06/08 07:44:30;;;;;;;;;11.75;11.75;;;;;;;;3725816;38;20375;-64
2021/06/08 07:47:01;;;;;;;;;13.25;12.50;;;;;;;;3733563;37;20345;-63
2021/06/08 07:49:28;;;;;;;;;13.00;11.00;;;;;;;;3725350;38;20308;-63
2021/06/08 07:51:55;;;;;;;;;9.00;9.00;;;;;;;;3725336;37;20311;-64
2021/06/08 07:54:23;;;;;;;;;13.00;11.75;;;;;;;;3724825;37;20212;-63
2021/06/08 07:56:51;;;;;;;;;12.50;12.50;;;;;;;;3725145;37;20309;-65
2021/06/08 07:59:18;;;;;;;;;16.00;15.75;;;;;;;;3724749;38;20356;-64
2021/06/08 08:01:44;;;;;;;;;12.25;11.50;;;;;;;;3725095;37;20316;-65
2021/06/08 08:04:19;;;;;;;;;11.00;10.25;;;;;;;;3725343;37;20306;-65
2021/06/08 08:06:49;;;;;;;;;13.00;12.25;;;;;;;;3724946;37;20301;-65
2021/06/08 08:09:19;;;;;;;;;13.75;13.75;;;;;;;;3725238;38;20301;-64
2021/06/08 08:11:46;;;;;;;;;14.75;13.75;;;;;;;;3725377;37;20263;-65
2021/06/08 08:14:14;;;;;;;;;15.25;13.00;;;;;;;;3725267;38;20305;-64
2021/06/08 08:16:45;;;;;;;;;12.00;12.00;;;;;;;;3725073;38;20350;-64
2021/06/08 08:19:11;;;;;;;;;11.50;11.50;;;;;;;;3725306;37;20273;-62
2021/06/08 08:21:37;;;;;;;;;11.25;11.00;;;;;;;;3725638;37;20296;-64
2021/06/08 08:24:03;;;;;;;;;11.50;11.50;;;;;;;;3725463;38;20253;-63
2021/06/08 08:26:36;;;;;;;;;10.50;10.00;;;;;;;;3725307;37;20265;-65
2021/06/08 08:29:03;;;;;;;;;11.25;11.25;;;;;;;;3725028;38;20519;-64
2021/06/08 08:31:32;;;;;;;;;11.75;11.75;;;;;;;;3725063;38;20330;-65
2021/06/08 08:33:58;;;;;;;;;12.75;12.00;;;;;;;;3724784;38;20222;-64
2021/06/08 08:36:28;;;;;;;;;12.00;12.00;;;;;;;;3725453;38;20398;-64
2021/06/08 08:38:58;;;;;;;;;13.00;12.75;;;;;;;;3725106;37;20238;-64
2021/06/08 08:41:27;;;;;;;;;11.00;11.00;;;;;;;;3725422;38;20222;-64
2021/06/08 08:43:53;;;;;;;;;11.00;10.25;;;;;;;;3720190;38;20234;-65
2021/06/08 08:46:20;;;;;;;;;11.25;11.25;;;;;;;;3719694;37;20232;-65
2021/06/08 08:48:52;;;;;;;;;8.75;8.00;;;;;;;;3724752;37;20213;-64
2021/06/08 08:51:19;;;;;;;;;10.00;10.00;;;;;;;;3726175;38;20202;-63
2021/06/08 08:53:47;;;;;;;;;10.00;10.00;;;;;;;;3725233;38;20212;-64
2021/06/08 08:56:15;;;;;;;;;10.00;10.00;;;;;;;;3727195;37;20199;-65
2021/06/08 08:58:44;;;;;;;;;11.00;11.00;;;;;;;;3725726;37;20158;-64
2021/06/08 09:01:10;;;;;;;;;10.75;10.75;;;;;;;;3725444;37;20214;-64
2021/06/08 09:03:37;;;;;;;;;11.25;11.25;;;;;;;;3725089;37;20164;-64
2021/06/08 09:06:05;;;;;;;;;9.25;9.25;;;;;;;;3725186;37;20198;-63
2021/06/08 09:08:31;;;;;;;;;11.00;11.00;;;;;;;;3725249;38;20153;-63
2021/06/08 09:10:59;;;;;;;;;12.75;12.75;;;;;;;;3724979;37;20278;-63
2021/06/08 09:13:26;;;;;;;;;10.00;9.00;;;;;;;;3724839;38;20255;-61
2021/06/08 09:15:51;;;;;;;;;11.00;11.00;;;;;;;;3724758;37;20193;-65
2021/06/08 09:18:19;;;;;;;;;12.00;11.00;;;;;;;;3724881;38;20175;-65
2021/06/08 09:20:45;;;;;;;;;9.75;9.75;;;;;;;;3725133;37;17999;-65
2021/06/08 09:23:13;;;;;;;;;8.00;8.00;;;;;;;;3725087;38;20115;-64
2021/06/08 09:25:44;;;;;;;;;10.50;9.50;;;;;;;;3724776;38;17999;-65
2021/06/08 09:28:40;;;;;;;;;10.75;10.75;;;;;;;;3725766;37;20168;-66
2021/06/08 09:31:12;;;;;;;;;12.25;12.25;;;;;;;;3725703;38;20200;-65
2021/06/08 09:33:52;;;;;;;;;9.00;8.25;;;;;;;;3724895;37;20169;-64
2021/06/08 09:36:22;;;;;;;;;10.00;10.00;;;;;;;;3725345;37;20163;-65
2021/06/08 09:38:52;;;;;;;;;7.75;7.75;;;;;;;;3725289;37;20175;-66
2021/06/08 09:44:25;;;;;;;;;9.00;9.00;;;;;;;;3726338;38;20197;-65
2021/06/08 09:46:54;;;;;;;;;10.50;9.25;;;;;;;;3725518;37;20227;-66
2021/06/08 09:49:33;;;;;;;;;7.00;7.00;;;;;;;;3725463;37;20132;-65
2021/06/08 09:52:05;;;;;;;;;9.75;9.75;;;;;;;;3725201;38;20101;-65
2021/06/08 09:54:35;;;;;;;;;11.00;11.00;;;;;;;;3725343;37;20108;-64
2021/06/08 09:57:19;;;;;;;;;8.75;8.75;;;;;;;;3725384;37;20204;-65
2021/06/08 09:59:47;;;;;;;;;10.00;10.00;;;;;;;;3725416;37;20130;-66
2021/06/08 10:02:29;;;;;;;;;9.75;9.75;;;;;;;;3725228;38;20151;-65
2021/06/08 10:05:16;;;;;;;;;9.00;8.00;;;;;;;;3725033;37;20079;-65
2021/06/08 10:07:42;;;;;;;;;12.75;12.25;;;;;;;;3725126;37;20174;-65
2021/06/08 10:10:12;;;;;;;;;10.00;10.00;;;;;;;;3726377;38;20067;-65
2021/06/08 10:12:56;;;;;;;;;9.00;9.00;;;;;;;;3725649;37;20169;-65
2021/06/08 10:15:22;;;;;;;;;11.00;11.00;;;;;;;;3726033;38;20117;-64
2021/06/08 10:17:55;;;;;;;;;9.75;9.25;;;;;;;;3725492;37;20094;-65
2021/06/08 10:20:22;;;;;;;;;9.50;9.50;;;;;;;;3725324;37;17922;-65
2021/06/08 10:22:50;;;;;;;;;9.00;9.00;;;;;;;;3724904;37;20134;-66
2021/06/08 10:25:16;;;;;;;;;10.00;10.00;;;;;;;;3724729;37;20137;-67
2021/06/08 10:27:43;;;;;;;;;9.00;9.00;;;;;;;;3724773;38;20130;-66
2021/06/08 10:30:11;;;;;;;;;7.75;7.75;;;;;;;;3725284;38;20055;-65
2021/06/08 10:32:37;;;;;;;;;9.00;9.00;;;;;;;;3725139;38;20071;-65
2021/06/08 10:35:04;;;;;;;;;10.50;9.50;;;;;;;;3725233;37;20139;-64
2021/06/08 10:37:34;;;;;;;;;10.00;10.00;;;;;;;;3725096;37;20135;-64
2021/06/08 10:40:00;;;;;;;;;9.75;9.25;;;;;;;;3724965;38;20163;-64
2021/06/08 10:42:30;;;;;;;;;10.75;10.25;;;;;;;;3725231;37;20214;-66
2021/06/08 10:45:10;;;;;;;;;9.75;9.75;;;;;;;;3725324;37;20046;-64
2021/06/08 10:48:05;;;;;;;;;9.75;9.25;;;;;;;;3725467;38;20084;-64
2021/06/08 10:50:33;;;;;;;;;9.50;9.00;;;;;;;;3725839;38;20082;-66
2021/06/08 10:52:59;;;;;;;;;9.00;9.00;;;;;;;;3725775;37;20102;-68
2021/06/08 10:55:27;;;;;;;;;9.00;9.00;;;;;;;;3725377;38;20162;-68
2021/06/08 10:57:53;;;;;;;;;10.00;9.50;;;;;;;;3725279;38;20015;-64
2021/06/08 11:00:52;;;;;;;;;8.00;8.00;;;;;;;;3725118;37;20090;-67
2021/06/08 11:03:38;;;;;;;;;8.00;8.00;;;;;;;;3725252;37;20030;-66
2021/06/08 11:06:04;;;;;;;;;9.00;9.00;;;;;;;;3725229;38;20094;-66
2021/06/08 11:08:48;;;;;;;;;8.50;8.50;;;;;;;;3724851;37;20085;-67
2021/06/08 11:11:34;;;;;;;;;8.75;8.75;;;;;;;;3724725;38;20045;-67
2021/06/08 11:14:01;;;;;;;;;11.00;10.75;;;;;;;;3725180;37;20031;-67
2021/06/08 11:16:34;;;;;;;;;9.25;9.25;;;;;;;;3725245;37;20094;-67
2021/06/08 11:19:01;;;;;;;;;9.00;9.00;;;;;;;;3725360;37;19991;-66
2021/06/08 11:21:33;;;;;;;;;8.00;8.00;;;;;;;;3725338;38;19990;-66
2021/06/08 11:24:00;;;;;;;;;8.50;8.00;;;;;;;;3725399;38;19976;-65
2021/06/08 11:26:44;;;;;;;;;9.25;9.25;;;;;;;;3725351;37;20061;-64
2021/06/08 11:29:12;;;;;;;;;10.50;9.50;;;;;;;;3725709;38;20051;-63
2021/06/08 11:31:58;;;;;;;;;253.60;241.40;;;;;;;;3725134;38;20025;-65
2021/06/08 11:34:27;;;;;;;;;36.50;32.75;;;;;;;;3725911;37;17848;-65
2021/06/08 11:36:54;;;;;;;;;10.00;10.00;;;;;;;;3727624;38;20021;-64
2021/06/08 11:39:30;;;;;;;;;6.75;6.75;;;;;;;;3725192;38;20070;-64
2021/06/08 11:42:04;;;;;;;;;6.75;6.75;;;;;;;;3725332;38;19955;-65
2021/06/08 11:44:31;;;;;;;;;9.00;8.75;;;;;;;;3725397;37;19947;-64
2021/06/08 11:47:00;;;;;;;;;9.00;9.00;;;;;;;;3725284;38;19974;-63
2021/06/08 11:49:28;;;;;;;;;5.75;5.75;;;;;;;;3725308;38;19940;-65
2021/06/08 11:52:12;;;;;;;;;9.75;9.00;;;;;;;;3725690;37;19931;-67
2021/06/08 11:54:40;;;;;;;;;9.25;9.25;;;;;;;;3726548;37;19928;-67
2021/06/08 11:57:15;;;;;;;;;7.75;7.75;;;;;;;;3725164;37;19916;-66
2021/06/08 11:59:59;;;;;;;;;8.00;8.00;;;;;;;;3725691;38;19947;-66
2021/06/08 12:02:33;;;;;;;;;9.00;8.75;;;;;;;;3725957;37;19945;-67
2021/06/08 12:05:26;;;;;;;;;9.25;9.25;;;;;;;;3728631;37;19921;-66
2021/06/08 12:08:04;;;;;;;;;8.25;7.25;;;;;;;;3729419;37;19950;-68
2021/06/08 12:10:49;;;;;;;;;7.00;7.00;;;;;;;;3731879;37;19932;-67
2021/06/08 12:13:17;;;;;;;;;7.25;7.25;;;;;;;;3731968;38;19950;-67
2021/06/08 12:15:45;;;;;;;;;7.00;7.00;;;;;;;;3733498;37;19982;-65
2021/06/08 12:18:19;;;;;;;;;10.50;10.25;;;;;;;;3732418;38;19899;-65
2021/06/08 12:20:46;;;;;;;;;10.00;10.00;;;;;;;;3730303;37;19912;-66
2021/06/08 12:23:32;;;;;;;;;5.50;5.50;;;;;;;;3725832;37;19993;-66
2021/06/08 12:26:08;;;;;;;;;11.00;10.00;;;;;;;;3725593;38;19916;-66
2021/06/08 12:28:34;;;;;;;;;8.25;8.25;;;;;;;;3726004;38;19982;-66
2021/06/08 12:31:10;;;;;;;;;6.50;6.50;;;;;;;;3726056;38;19883;-65
2021/06/08 12:33:38;;;;;;;;;7.75;7.25;;;;;;;;3725237;37;19900;-66
2021/06/08 12:36:07;;;;;;;;;10.75;9.00;;;;;;;;3725048;38;19893;-67
2021/06/08 12:38:34;;;;;;;;;7.00;7.00;;;;;;;;3725203;38;19894;-67
2021/06/08 12:41:03;;;;;;;;;11.00;10.75;;;;;;;;3724822;37;19862;-66
2021/06/08 12:43:40;;;;;;;;;8.25;8.25;;;;;;;;3725370;37;19924;-66
2021/06/08 12:46:08;;;;;;;;;8.75;8.75;;;;;;;;3724512;37;20368;-66
2021/06/08 12:48:38;;;;;;;;;9.25;9.25;;;;;;;;3724945;37;20374;-65
2021/06/08 12:51:13;;;;;;;;;8.00;8.00;;;;;;;;3724542;38;20356;-65
2021/06/08 12:53:39;;;;;;;;;6.25;5.50;;;;;;;;3725255;38;20514;-65
2021/06/08 12:56:06;;;;;;;;;7.00;6.50;;;;;;;;3725244;38;20511;-66
2021/06/08 12:58:34;;;;;;;;;9.00;8.00;;;;;;;;3724569;37;17782;-66
2021/06/08 13:01:00;;;;;;;;;8.75;8.75;;;;;;;;3725030;37;20573;-64
2021/06/08 13:03:26;;;;;;;;;5.50;5.50;;;;;;;;3725176;37;20328;-65
2021/06/08 13:05:53;;;;;;;;;4.50;3.75;;;;;;;;3725145;37;20493;-65
2021/06/08 13:08:25;;;;;;;;;7.25;7.25;;;;;;;;3725094;38;20523;-65
2021/06/08 13:10:52;;;;;;;;;9.00;9.00;;;;;;;;3724604;38;20348;-66
2021/06/08 13:13:18;;;;;;;;;7.50;7.50;;;;;;;;3724642;37;20351;-64
2021/06/08 13:15:51;;;;;;;;;7.00;7.00;;;;;;;;3724535;38;20471;-64
2021/06/08 13:18:18;;;;;;;;;10.25;9.75;;;;;;;;3724708;37;17792;-65
2021/06/08 13:20:46;;;;;;;;;9.00;9.00;;;;;;;;3724973;38;20363;-65
2021/06/08 13:23:25;;;;;;;;;6.50;6.50;;;;;;;;3725099;38;20314;-64
2021/06/08 13:26:01;;;;;;;;;8.75;8.75;;;;;;;;3725000;37;20321;-64
2021/06/08 13:28:28;;;;;;;;;8.50;7.50;;;;;;;;3724941;38;20395;-64
2021/06/08 13:31:08;;;;;;;;;8.00;8.00;;;;;;;;3724928;37;20301;-65
2021/06/08 13:33:37;;;;;;;;;4.00;4.00;;;;;;;;3724698;38;20322;-66
2021/06/08 13:36:04;;;;;;;;;6.00;6.00;;;;;;;;3725249;37;20299;-65
2021/06/08 13:38:31;;;;;;;;;6.25;6.25;;;;;;;;3725184;38;20296;-65
2021/06/08 13:40:58;;;;;;;;;6.00;6.00;;;;;;;;3725136;38;20440;-64
2021/06/08 13:43:26;;;;;;;;;8.00;7.75;;;;;;;;3725105;37;17703;-64
2021/06/08 13:45:55;;;;;;;;;6.00;6.00;;;;;;;;3724238;37;20451;-65
2021/06/08 13:48:24;;;;;;;;;6.00;6.00;;;;;;;;3724451;37;20592;-65
2021/06/08 13:51:08;;;;;;;;;6.25;6.25;;;;;;;;3724442;37;20436;-65
2021/06/08 13:53:35;;;;;;;;;6.00;6.00;;;;;;;;3724752;37;20623;-66
2021/06/08 13:56:07;;;;;;;;;6.25;6.25;;;;;;;;3724316;37;20425;-66
2021/06/08 14:01:19;;;;;;;;;6.00;6.00;;;;;;;;3724890;37;20488;-65
2021/06/08 14:03:58;;;;;;;;;5.50;5.50;;;;;;;;3726294;37;20568;-65
2021/06/08 14:06:24;;;;;;;;;6.00;6.00;;;;;;;;3728800;37;20563;-64
2021/06/08 14:08:57;;;;;;;;;5.25;5.25;;;;;;;;3727198;38;20554;-64
2021/06/08 14:11:33;;;;;;;;;5.75;5.75;;;;;;;;3724875;38;20369;-64
2021/06/08 14:14:00;;;;;;;;;7.00;7.00;;;;;;;;3724700;37;20562;-64
2021/06/08 14:16:28;;;;;;;;;5.50;5.50;;;;;;;;3725041;37;20330;-65
2021/06/08 14:18:55;;;;;;;;;6.00;6.00;;;;;;;;3727674;38;20400;-65
2021/06/08 14:21:21;;;;;;;;;6.75;6.75;;;;;;;;3725292;38;19760;-65
2021/06/08 14:23:52;;;;;;;;;5.75;5.75;;;;;;;;3724869;37;20545;-64
2021/06/08 14:26:19;;;;;;;;;6.00;6.00;;;;;;;;3725058;37;20550;-64
2021/06/08 14:28:45;;;;;;;;;3.00;3.00;;;;;;;;3724843;38;20539;-65
2021/06/08 14:31:13;;;;;;;;;6.00;6.00;;;;;;;;3724843;37;17694;-65
2021/06/08 14:33:40;;;;;;;;;6.00;6.00;;;;;;;;3724608;38;20503;-64
2021/06/08 14:36:06;;;;;;;;;6.00;6.00;;;;;;;;3724551;38;20513;-65
2021/06/08 14:38:33;;;;;;;;;8.75;8.00;;;;;;;;3724858;37;20516;-65
2021/06/08 14:41:02;;;;;;;;;8.00;8.00;;;;;;;;3724972;38;20372;-65
2021/06/08 14:43:34;;;;;;;;;7.25;7.25;;;;;;;;3725188;38;20315;-65
2021/06/08 14:46:00;;;;;;;;;6.00;6.00;;;;;;;;3724979;37;19959;-66
2021/06/08 14:48:27;;;;;;;;;6.00;6.00;;;;;;;;3725118;38;19964;-65
2021/06/08 14:50:54;;;;;;;;;6.00;6.00;;;;;;;;3724921;37;19965;-64